createdAt,value
2019-05-20T00:02:21.674Z,100413.39
2019-05-20T00:04:37.337Z,100405.35
2019-05-20T00:07:05.570Z,100410.61
2019-05-20T00:09:33.787Z,100401.41
2019-05-20T00:12:02.034Z,100406.97
2019-05-20T00:14:30.273Z,100403.91
2019-05-20T00:16:58.490Z,100393.93
2019-05-20T00:19:26.729Z,100394.26
2019-05-20T00:21:54.940Z,100405.14
2019-05-20T00:24:23.172Z,100394.30
2019-05-20T00:26:51.472Z,100387.11
2019-05-20T00:29:19.837Z,100391.00
2019-05-20T00:31:48.070Z,100389.93
2019-05-20T00:34:16.280Z,100387.48
2019-05-20T00:36:44.506Z,100392.17
2019-05-20T00:39:14.403Z,100393.02
2019-05-20T00:41:42.648Z,100395.79
2019-05-20T00:44:10.965Z,100387.23
2019-05-20T00:46:39.186Z,100390.58
2019-05-20T00:49:07.430Z,100380.08
2019-05-20T00:51:35.627Z,100379.80
2019-05-20T00:54:03.933Z,100385.02
2019-05-20T00:56:32.112Z,100373.36
2019-05-20T00:59:00.490Z,100374.75
2019-05-20T01:01:28.700Z,100375.32
2019-05-20T01:03:56.919Z,100383.17
2019-05-20T01:06:25.128Z,100387.38
2019-05-20T01:08:53.361Z,100387.38
2019-05-20T01:11:21.622Z,100379.09
2019-05-20T01:13:49.863Z,100381.38
2019-05-20T01:16:18.092Z,100388.34
2019-05-20T01:18:46.331Z,100381.12
2019-05-20T01:21:14.558Z,100383.34
2019-05-20T01:23:42.778Z,100383.89
2019-05-20T01:26:11.000Z,100379.48
2019-05-20T01:28:39.221Z,100383.40
2019-05-20T01:31:07.445Z,100386.50
2019-05-20T01:33:35.695Z,100383.22
2019-05-20T01:36:03.987Z,100390.17
2019-05-20T01:38:32.205Z,100387.47
2019-05-20T01:41:00.461Z,100398.56
2019-05-20T01:43:28.682Z,100399.13
2019-05-20T01:45:56.892Z,100402.74
2019-05-20T01:48:25.128Z,100407.45
2019-05-20T01:50:53.439Z,100406.05
2019-05-20T01:53:21.642Z,100399.66
2019-05-20T01:55:49.891Z,100395.20
2019-05-20T01:58:18.112Z,100400.50
2019-05-20T02:00:46.337Z,100402.20
2019-05-20T02:03:30.233Z,100409.69
2019-05-20T02:05:44.501Z,100411.61
2019-05-20T02:08:12.719Z,100419.66
2019-05-20T02:10:40.976Z,100409.40
2019-05-20T02:13:09.195Z,100420.50
2019-05-20T02:15:39.050Z,100301.52
2019-05-20T02:18:07.277Z,100422.43
2019-05-20T02:20:35.521Z,100419.40
2019-05-20T02:23:15.935Z,100411.62
2019-05-20T02:25:46.854Z,100400.06
2019-05-20T02:28:15.311Z,100400.06
2019-05-20T02:30:43.570Z,100414.15
2019-05-20T02:33:11.809Z,100403.53
2019-05-20T02:35:40.038Z,100403.53
2019-05-20T02:38:08.282Z,100405.74
2019-05-20T02:40:36.500Z,100402.67
2019-05-20T02:43:04.737Z,100401.27
2019-05-20T02:45:32.966Z,100401.55
2019-05-20T02:48:01.198Z,100401.01
2019-05-20T02:50:29.417Z,100402.11
2019-05-20T02:52:57.754Z,100405.74
2019-05-20T02:55:25.961Z,100394.42
2019-05-20T02:57:54.291Z,100390.27
2019-05-20T03:00:22.512Z,100389.16
2019-05-20T03:02:50.746Z,100387.47
2019-05-20T03:05:19.869Z,100381.61
2019-05-20T03:07:48.081Z,100334.43
2019-05-20T03:10:16.300Z,100394.95
2019-05-20T03:12:44.509Z,100395.80
2019-05-20T03:15:12.744Z,100397.19
2019-05-20T03:17:40.982Z,100391.05
2019-05-20T03:20:09.214Z,100391.58
2019-05-20T03:22:37.436Z,100389.64
2019-05-20T03:25:06.988Z,100388.53
2019-05-20T03:27:35.197Z,100394.62
2019-05-20T03:30:03.783Z,100393.77
2019-05-20T03:32:32.029Z,100391.56
2019-05-20T03:35:01.322Z,100392.16
2019-05-20T03:37:29.795Z,100394.42
2019-05-20T03:39:58.009Z,100385.33
2019-05-20T03:42:26.229Z,100392.05
2019-05-20T03:44:54.445Z,100390.97
2019-05-20T03:47:22.687Z,100393.75
2019-05-20T03:49:50.897Z,100400.09
2019-05-20T03:52:19.130Z,100398.38
2019-05-20T03:54:47.336Z,100397.27
2019-05-20T03:57:15.566Z,100392.20
2019-05-20T03:59:43.805Z,100393.88
2019-05-20T04:02:12.046Z,100401.05
2019-05-20T04:04:40.253Z,100400.20
2019-05-20T04:07:08.463Z,100399.97
2019-05-20T04:09:36.735Z,100394.75
2019-05-20T04:12:04.966Z,100392.05
2019-05-20T04:14:33.215Z,100386.51
2019-05-20T04:17:01.430Z,100395.08
2019-05-20T04:19:29.674Z,100386.77
2019-05-20T04:21:57.877Z,100386.84
2019-05-20T04:24:26.079Z,100386.84
2019-05-20T04:26:57.579Z,100388.47
2019-05-20T04:29:25.782Z,100388.20
2019-05-20T04:31:54.001Z,100385.98
2019-05-20T04:34:22.223Z,100382.38
2019-05-20T04:36:50.463Z,100378.75
2019-05-20T04:39:18.712Z,100379.58
2019-05-20T04:41:46.944Z,100375.95
2019-05-20T04:44:15.154Z,100385.90
2019-05-20T04:46:43.402Z,100373.68
2019-05-20T04:49:11.615Z,100385.59
2019-05-20T04:51:39.848Z,100385.59
2019-05-20T04:54:08.085Z,100384.19
2019-05-20T04:56:36.297Z,100381.39
2019-05-20T04:59:04.520Z,100385.80
2019-05-20T05:01:32.741Z,100388.03
2019-05-20T05:04:00.980Z,100383.31
2019-05-20T05:06:29.219Z,100375.52
2019-05-20T05:08:57.457Z,100372.71
2019-05-20T05:11:25.702Z,100379.27
2019-05-20T05:13:53.986Z,100381.72
2019-05-20T05:16:22.535Z,100394.37
2019-05-20T05:18:50.779Z,100399.05
2019-05-20T05:21:19.006Z,100397.66
2019-05-20T05:23:58.699Z,100397.30
2019-05-20T05:26:17.223Z,100391.95
2019-05-20T05:28:45.449Z,100393.52
2019-05-20T05:31:13.662Z,100388.70
2019-05-20T05:33:41.919Z,100391.12
2019-05-20T05:36:10.114Z,100408.26
2019-05-20T05:38:38.356Z,100416.32
2019-05-20T05:41:06.593Z,100416.04
2019-05-20T05:43:34.853Z,100413.28
2019-05-20T05:46:03.093Z,100407.15
2019-05-20T05:48:31.319Z,100411.50
2019-05-20T05:51:01.175Z,100405.83
2019-05-20T05:53:29.392Z,100238.33
2019-05-20T05:55:57.623Z,100413.48
2019-05-20T05:58:25.916Z,100410.50
2019-05-20T06:00:54.139Z,100415.58
2019-05-20T06:03:22.346Z,100424.51
2019-05-20T06:05:50.931Z,100417.83
2019-05-20T06:08:19.938Z,100420.89
2019-05-20T06:10:48.160Z,100409.25
2019-05-20T06:13:16.392Z,100411.75
2019-05-20T06:15:44.603Z,100275.46
2019-05-20T06:18:12.858Z,100412.97
2019-05-20T06:20:41.164Z,100412.92
2019-05-20T06:23:09.472Z,100415.62
2019-05-20T06:25:37.701Z,100418.56
2019-05-20T06:28:05.915Z,100412.86
2019-05-20T06:30:39.485Z,100429.75
2019-05-20T06:33:07.736Z,100426.09
2019-05-20T06:35:36.110Z,100426.19
2019-05-20T06:38:06.158Z,100430.08
2019-05-20T06:40:34.378Z,100434.00
2019-05-20T06:43:02.598Z,100431.41
2019-05-20T06:45:30.819Z,100431.41
2019-05-20T06:47:59.096Z,100441.71
2019-05-20T06:50:29.587Z,100432.00
2019-05-20T06:52:57.260Z,100436.78
2019-05-20T06:55:25.498Z,100427.30
2019-05-20T06:57:53.751Z,100421.09
2019-05-20T07:00:36.395Z,100431.48
2019-05-20T07:03:04.962Z,100426.04
2019-05-20T07:05:33.216Z,100430.05
2019-05-20T07:08:01.634Z,100426.23
2019-05-20T07:10:29.932Z,100424.43
2019-05-20T07:12:58.182Z,100416.59
2019-05-20T07:15:26.412Z,100409.02
2019-05-20T07:17:54.645Z,100418.09
2019-05-20T07:20:22.874Z,100422.14
2019-05-20T07:22:55.601Z,100419.97
2019-05-20T07:25:21.182Z,100421.28
2019-05-20T07:27:49.387Z,100430.45
2019-05-20T07:30:17.611Z,100435.12
2019-05-20T07:32:45.873Z,100438.50
2019-05-20T07:35:28.718Z,100436.45
2019-05-20T07:37:44.054Z,100431.97
2019-05-20T07:40:12.443Z,100439.57
2019-05-20T07:42:40.657Z,100439.06
2019-05-20T07:45:08.965Z,100437.60
2019-05-20T07:47:37.178Z,100441.63
2019-05-20T07:50:06.570Z,100444.41
2019-05-20T07:52:34.778Z,100450.27
2019-05-20T07:55:03.030Z,100447.02
2019-05-20T07:57:33.788Z,100456.86
2019-05-20T08:00:02.018Z,100442.23
2019-05-20T08:02:30.227Z,100452.51
2019-05-20T08:04:58.450Z,100454.47
2019-05-20T08:07:30.128Z,100456.16
2019-05-20T08:09:56.637Z,100446.60
2019-05-20T08:12:24.872Z,100451.70
2019-05-20T08:14:53.115Z,100454.52
2019-05-20T08:17:21.321Z,100454.95
2019-05-20T08:19:49.539Z,100458.39
2019-05-20T08:22:17.797Z,100453.84
2019-05-20T08:24:46.012Z,100451.94
2019-05-20T08:27:14.243Z,100452.44
2019-05-20T08:29:42.541Z,100461.26
2019-05-20T08:32:10.754Z,100463.33
2019-05-20T08:34:40.154Z,100462.57
2019-05-20T08:37:08.681Z,100457.80
2019-05-20T08:39:36.927Z,100454.64
2019-05-20T08:42:05.155Z,100447.89
2019-05-20T08:44:33.459Z,100441.30
2019-05-20T08:47:01.946Z,100438.92
2019-05-20T08:49:30.203Z,100449.38
2019-05-20T08:51:58.757Z,100454.43
2019-05-20T08:54:26.929Z,100449.66
2019-05-20T08:56:55.198Z,100446.98
2019-05-20T08:59:23.451Z,100453.27
2019-05-20T09:01:51.655Z,100455.16
2019-05-20T09:04:19.935Z,100447.59
2019-05-20T09:06:48.158Z,100452.29
2019-05-20T09:09:16.383Z,100458.28
2019-05-20T09:11:47.706Z,100447.77
2019-05-20T09:14:14.626Z,100449.11
2019-05-20T09:16:42.965Z,100445.67
2019-05-20T09:19:11.238Z,100450.40
2019-05-20T09:21:39.451Z,100446.27
2019-05-20T09:24:07.724Z,100460.05
2019-05-20T09:26:35.991Z,100458.13
2019-05-20T09:29:04.193Z,100458.80
2019-05-20T09:31:32.411Z,100459.25
2019-05-20T09:34:00.630Z,100457.39
2019-05-20T09:36:28.883Z,100459.25
2019-05-20T09:38:57.100Z,100458.99
2019-05-20T09:41:25.321Z,100455.09
2019-05-20T09:43:53.630Z,100455.67
2019-05-20T09:46:21.886Z,100458.42
2019-05-20T09:48:50.126Z,100453.64
2019-05-20T09:51:18.429Z,100454.44
2019-05-20T09:53:46.726Z,100455.52
2019-05-20T09:56:14.961Z,100458.42
2019-05-20T09:58:43.166Z,100473.04
2019-05-20T10:01:11.394Z,100467.28
2019-05-20T10:03:39.642Z,100472.69
2019-05-20T10:06:07.917Z,100476.80
2019-05-20T10:08:43.256Z,100461.84
2019-05-20T10:11:06.106Z,100463.73
2019-05-20T10:13:34.314Z,100466.05
2019-05-20T10:16:02.559Z,100459.55
2019-05-20T10:18:37.310Z,100450.14
2019-05-20T10:21:00.748Z,100449.72
2019-05-20T10:23:28.962Z,100455.30
2019-05-20T10:25:57.206Z,100455.78
2019-05-20T10:28:25.424Z,100459.65
2019-05-20T10:30:53.638Z,100459.38
2019-05-20T10:33:21.899Z,100459.20
2019-05-20T10:35:50.114Z,100456.16
2019-05-20T10:38:18.319Z,100457.92
2019-05-20T10:40:46.534Z,100465.70
2019-05-20T10:43:14.753Z,100461.09
2019-05-20T10:45:43.006Z,100467.80
2019-05-20T10:48:11.221Z,100477.29
2019-05-20T10:50:39.479Z,100464.70
2019-05-20T10:53:07.703Z,100460.82
2019-05-20T10:55:35.931Z,100460.74
2019-05-20T10:58:04.360Z,100462.95
2019-05-20T11:00:32.524Z,100462.11
2019-05-20T11:03:00.750Z,100457.77
2019-05-20T11:05:28.981Z,100452.09
2019-05-20T11:07:57.408Z,100451.82
2019-05-20T11:10:25.712Z,100455.69
2019-05-20T11:12:54.681Z,100460.62
2019-05-20T11:15:22.919Z,100461.11
2019-05-20T11:17:51.146Z,100474.91
2019-05-20T11:20:20.145Z,100462.96
2019-05-20T11:22:48.383Z,100472.79
2019-05-20T11:25:16.776Z,100460.94
2019-05-20T11:27:45.001Z,100465.52
2019-05-20T11:30:13.222Z,100457.27
2019-05-20T11:32:41.446Z,100455.59
2019-05-20T11:35:09.678Z,100444.36
2019-05-20T11:37:37.884Z,100449.28
2019-05-20T11:40:10.114Z,100451.48
2019-05-20T11:42:38.912Z,100441.88
2019-05-20T11:45:10.097Z,100447.66
2019-05-20T11:47:38.330Z,100451.57
2019-05-20T11:50:09.465Z,100448.67
2019-05-20T11:52:37.816Z,100464.20
2019-05-20T11:55:08.228Z,100451.33
2019-05-20T11:57:36.437Z,100458.06
2019-05-20T12:00:12.118Z,100452.62
2019-05-20T12:02:40.352Z,100460.45
2019-05-20T12:05:08.596Z,100453.46
2019-05-20T12:07:36.796Z,100457.27
2019-05-20T12:10:06.170Z,100455.34
2019-05-20T12:12:34.383Z,100455.70
2019-05-20T12:15:03.970Z,100456.84
2019-05-20T12:17:32.838Z,100457.58
2019-05-20T12:20:01.066Z,100458.97
2019-05-20T12:22:29.275Z,100456.56
2019-05-20T12:24:57.513Z,100462.54
2019-05-20T12:27:25.804Z,100460.60
2019-05-20T12:29:53.989Z,100463.52
2019-05-20T12:32:22.300Z,100463.06
2019-05-20T12:34:50.504Z,100459.92
2019-05-20T12:37:18.802Z,100452.09
2019-05-20T12:39:47.053Z,100452.44
2019-05-20T12:42:15.387Z,100451.05
2019-05-20T12:44:43.621Z,100453.67
2019-05-20T12:47:11.839Z,100452.67
2019-05-20T12:49:40.064Z,100455.86
2019-05-20T12:52:08.378Z,100441.90
2019-05-20T12:54:36.601Z,100445.66
2019-05-20T12:57:04.907Z,100446.34
2019-05-20T12:59:33.117Z,100445.64
2019-05-20T13:02:01.331Z,100442.59
2019-05-20T13:04:29.558Z,100434.76
2019-05-20T13:06:57.794Z,100427.36
2019-05-20T13:09:26.016Z,100428.66
2019-05-20T13:11:54.235Z,100424.20
2019-05-20T13:14:22.446Z,100423.26
2019-05-20T13:16:50.698Z,100425.02
2019-05-20T13:19:18.917Z,100431.32
2019-05-20T13:21:47.154Z,100423.80
2019-05-20T13:24:15.384Z,100429.21
2019-05-20T13:26:43.627Z,100424.73
2019-05-20T13:29:11.820Z,100426.86
2019-05-20T13:31:40.070Z,100411.70
2019-05-20T13:34:08.285Z,100404.69
2019-05-20T13:36:36.502Z,100408.91
2019-05-20T13:39:06.412Z,100406.45
2019-05-20T13:41:34.645Z,100405.77
2019-05-20T13:44:02.865Z,100404.11
2019-05-20T13:46:31.081Z,100404.11
2019-05-20T13:48:59.305Z,100395.78
2019-05-20T13:51:27.553Z,100397.07
2019-05-20T13:53:55.762Z,100393.09
2019-05-20T13:56:23.986Z,100381.02
2019-05-20T13:58:52.208Z,100379.61
2019-05-20T14:01:20.472Z,100375.29
2019-05-20T14:03:48.692Z,100380.09
2019-05-20T14:06:16.892Z,100379.28
2019-05-20T14:08:45.151Z,100373.42
2019-05-20T14:11:13.682Z,100377.77
2019-05-20T14:13:57.305Z,100374.47
2019-05-20T14:16:25.547Z,100377.93
2019-05-20T14:18:54.170Z,100373.81
2019-05-20T14:21:22.395Z,100367.96
2019-05-20T14:23:50.940Z,100236.22
2019-05-20T14:26:19.999Z,100368.75
2019-05-20T14:28:48.680Z,100321.83
2019-05-20T14:31:17.352Z,100350.66
2019-05-20T14:33:45.650Z,100352.77
2019-05-20T14:36:36.074Z,100339.59
2019-05-20T14:38:43.855Z,100340.84
2019-05-20T14:41:20.991Z,100324.64
2019-05-20T14:43:42.037Z,100326.05
2019-05-20T14:46:10.248Z,100324.52
2019-05-20T14:48:38.480Z,100334.74
2019-05-20T14:51:06.694Z,100323.48
2019-05-20T14:53:34.912Z,100322.64
2019-05-20T14:56:03.111Z,100315.59
2019-05-20T14:58:31.336Z,100334.72
2019-05-20T15:01:01.274Z,100328.73
2019-05-20T15:03:29.466Z,100330.05
2019-05-20T15:05:57.675Z,100341.05
2019-05-20T15:08:25.896Z,100335.06
2019-05-20T15:10:54.155Z,100344.30
2019-05-20T15:13:22.363Z,100347.55
2019-05-20T15:15:50.805Z,100348.84
2019-05-20T15:18:19.033Z,100351.99
2019-05-20T15:20:47.253Z,100348.87
2019-05-20T15:23:15.469Z,100350.20
2019-05-20T15:25:43.720Z,100341.67
2019-05-20T15:28:12.298Z,100346.62
2019-05-20T15:30:40.537Z,100344.03
2019-05-20T15:33:08.790Z,100343.44
2019-05-20T15:35:37.009Z,100343.56
2019-05-20T15:38:05.222Z,100340.59
2019-05-20T15:40:33.440Z,100339.55
2019-05-20T15:43:01.874Z,100342.71
2019-05-20T15:45:30.067Z,100333.55
2019-05-20T15:47:58.289Z,100336.83
2019-05-20T15:50:26.591Z,100338.05
2019-05-20T15:52:55.339Z,100322.89
2019-05-20T15:55:23.924Z,100329.86
2019-05-20T15:57:52.141Z,100329.98
2019-05-20T16:00:20.386Z,100327.39
2019-05-20T16:02:48.955Z,100337.64
2019-05-20T16:05:17.190Z,100325.89
2019-05-20T16:07:45.409Z,100335.40
2019-05-20T16:10:13.651Z,100331.25
2019-05-20T16:12:42.481Z,100337.35
2019-05-20T16:15:10.692Z,100333.06
2019-05-20T16:17:38.916Z,100342.22
2019-05-20T16:20:08.183Z,100339.17
2019-05-20T16:22:36.433Z,100334.11
2019-05-20T16:25:06.077Z,100348.69
2019-05-20T16:27:34.368Z,100335.55
2019-05-20T16:30:06.804Z,100330.87
2019-05-20T16:32:32.741Z,100325.91
2019-05-20T16:35:01.019Z,100322.75
2019-05-20T16:37:29.249Z,100314.28
2019-05-20T16:39:57.547Z,100311.11
2019-05-20T16:42:25.775Z,100320.38
2019-05-20T16:44:54.424Z,100327.06
2019-05-20T16:47:22.644Z,100324.02
2019-05-20T16:49:50.883Z,100325.32
2019-05-20T16:52:19.113Z,100300.56
2019-05-20T16:54:47.348Z,100320.23
2019-05-20T16:57:15.564Z,100339.26
2019-05-20T16:59:43.855Z,100322.25
2019-05-20T17:02:12.156Z,100321.89
2019-05-20T17:04:40.390Z,100321.64
2019-05-20T17:07:08.620Z,100317.44
2019-05-20T17:09:36.893Z,100320.03
2019-05-20T17:12:05.070Z,100322.02
2019-05-20T17:14:33.290Z,100320.16
2019-05-20T17:19:28.774Z,100334.16
2019-05-20T17:21:57.103Z,100334.96
2019-05-20T17:24:25.406Z,100346.95
2019-05-20T17:26:53.631Z,100343.42
2019-05-20T17:29:21.869Z,100352.23
2019-05-20T17:31:50.079Z,100347.16
2019-05-20T17:34:18.387Z,100353.72
2019-05-20T17:36:46.593Z,100354.98
2019-05-20T17:39:14.944Z,100352.99
2019-05-20T17:41:43.230Z,100362.37
2019-05-20T17:44:11.459Z,100360.96
2019-05-20T17:46:39.656Z,100356.16
2019-05-20T17:49:07.884Z,100350.64
2019-05-20T17:51:36.123Z,100353.92
2019-05-20T17:54:04.373Z,100348.55
2019-05-20T17:56:32.594Z,100342.56
2019-05-20T17:59:00.843Z,100343.50
2019-05-20T18:01:29.069Z,100339.64
2019-05-20T18:03:57.275Z,100340.58
2019-05-20T18:06:25.507Z,100348.08
2019-05-20T18:08:55.358Z,100351.56
2019-05-20T18:11:23.584Z,100343.00
2019-05-20T18:13:51.924Z,100340.29
2019-05-20T18:16:20.164Z,100344.95
2019-05-20T18:18:48.383Z,100340.44
2019-05-20T18:21:16.630Z,100345.94
2019-05-20T18:23:44.829Z,100349.20
2019-05-20T18:26:13.042Z,100354.58
2019-05-20T18:28:41.262Z,100354.45
2019-05-20T18:31:09.477Z,100353.98
2019-05-20T18:33:37.866Z,100357.70
2019-05-20T18:36:06.198Z,100359.08
2019-05-20T18:38:34.417Z,100362.19
2019-05-20T18:41:04.276Z,100370.75
2019-05-20T18:43:32.498Z,100374.67
2019-05-20T18:46:01.059Z,100372.77
2019-05-20T18:48:29.343Z,100376.94
2019-05-20T18:50:57.572Z,100378.79
2019-05-20T18:53:28.792Z,100383.45
2019-05-20T18:55:57.008Z,100379.07
2019-05-20T18:58:25.251Z,100379.52
2019-05-20T19:00:53.467Z,100378.55
2019-05-20T19:03:21.994Z,100383.52
2019-05-20T19:05:50.512Z,100382.56
2019-05-20T19:08:18.752Z,100376.20
2019-05-20T19:10:47.011Z,100371.60
2019-05-20T19:13:15.276Z,100374.14
2019-05-20T19:15:43.578Z,100374.31
2019-05-20T19:18:11.865Z,100372.30
2019-05-20T19:20:40.086Z,100380.58
2019-05-20T19:23:08.712Z,100375.05
2019-05-20T19:25:38.135Z,100375.84
2019-05-20T19:28:06.534Z,100379.65
2019-05-20T19:30:34.770Z,100378.91
2019-05-20T19:33:03.012Z,100372.89
2019-05-20T19:35:31.231Z,100371.00
2019-05-20T19:37:59.453Z,100365.25
2019-05-20T19:40:27.681Z,100373.53
2019-05-20T19:42:55.907Z,100369.15
2019-05-20T19:45:24.215Z,100369.84
2019-05-20T19:47:52.446Z,100369.35
2019-05-20T19:50:20.690Z,100365.80
2019-05-20T19:52:48.971Z,100365.31
2019-05-20T19:55:19.061Z,100364.59
2019-05-20T19:57:47.128Z,100354.61
2019-05-20T20:00:15.369Z,100361.44
2019-05-20T20:02:43.689Z,100355.69
2019-05-20T20:05:12.144Z,100362.55
2019-05-20T20:07:40.302Z,100359.83
2019-05-20T20:10:08.537Z,100369.50
2019-05-20T20:12:36.757Z,100359.43
2019-05-20T20:15:06.184Z,100373.45
2019-05-20T20:17:34.399Z,100379.05
2019-05-20T20:20:02.793Z,100379.05
2019-05-20T20:22:31.034Z,100379.88
2019-05-20T20:24:59.246Z,100383.26
2019-05-20T20:27:27.480Z,100373.53
2019-05-20T20:29:55.687Z,100369.41
2019-05-20T20:32:37.465Z,100363.91
2019-05-20T20:34:53.880Z,100365.73
2019-05-20T20:37:22.084Z,100357.83
2019-05-20T20:39:50.312Z,100366.40
2019-05-20T20:42:18.543Z,100366.25
2019-05-20T20:44:46.841Z,100357.92
2019-05-20T20:47:15.095Z,100352.08
2019-05-20T20:49:43.341Z,100350.19
2019-05-20T20:52:11.563Z,100352.73
2019-05-20T20:54:39.780Z,100348.04
2019-05-20T20:57:08.023Z,100354.55
2019-05-20T20:59:36.236Z,100359.33
2019-05-20T21:02:04.541Z,100354.06
2019-05-20T21:04:32.840Z,100352.66
2019-05-20T21:07:01.091Z,100367.81
2019-05-20T21:09:29.359Z,100361.72
2019-05-20T21:11:57.550Z,100372.43
2019-05-20T21:14:25.794Z,100223.46
2019-05-20T21:16:54.013Z,100364.78
2019-05-20T21:19:22.262Z,100377.88
2019-05-20T21:21:50.755Z,100375.31
2019-05-20T21:24:18.965Z,100380.03
2019-05-20T21:26:47.183Z,100383.41
2019-05-20T21:29:15.410Z,100378.71
2019-05-20T21:31:43.620Z,100380.69
2019-05-20T21:34:11.870Z,100377.95
2019-05-20T21:36:47.725Z,100371.30
2019-05-20T21:39:10.038Z,100366.26
2019-05-20T21:41:38.299Z,100365.20
2019-05-20T21:44:06.485Z,100367.25
2019-05-20T21:46:34.728Z,100364.78
2019-05-20T21:49:02.943Z,100360.09
2019-05-20T21:51:31.151Z,100355.96
2019-05-20T21:53:59.370Z,100353.34
2019-05-20T21:56:27.581Z,100356.15
2019-05-20T21:58:55.801Z,100346.76
2019-05-20T22:01:24.010Z,100341.80
2019-05-20T22:03:52.244Z,100346.91
2019-05-20T22:06:20.497Z,100336.39
2019-05-20T22:08:48.733Z,100335.03
2019-05-20T22:11:16.930Z,100334.53
2019-05-20T22:13:45.165Z,100337.41
2019-05-20T22:16:13.374Z,100332.45
2019-05-20T22:18:41.584Z,100324.80
2019-05-20T22:21:11.507Z,100329.84
2019-05-20T22:23:44.430Z,100328.17
2019-05-20T22:26:12.631Z,100321.59
2019-05-20T22:28:40.867Z,100314.09
2019-05-20T22:31:09.066Z,100320.26
2019-05-20T22:33:41.832Z,100302.97
2019-05-20T22:36:07.286Z,100309.47
2019-05-20T22:38:35.493Z,100303.38
2019-05-20T22:41:03.726Z,100308.48
2019-05-20T22:43:32.013Z,100144.86
2019-05-20T22:46:00.228Z,100300.76
2019-05-20T22:48:28.485Z,100305.30
2019-05-20T22:50:56.702Z,100301.41
2019-05-20T22:53:24.906Z,100293.68
2019-05-20T22:55:53.131Z,100302.64
2019-05-20T22:58:21.344Z,100302.72
2019-05-20T23:00:49.571Z,100306.08
2019-05-20T23:03:17.779Z,100307.82
2019-05-20T23:05:46.007Z,100310.69
2019-05-20T23:08:14.211Z,100298.84
2019-05-20T23:10:42.414Z,100301.62
2019-05-20T23:13:10.673Z,100302.70
2019-05-20T23:15:38.999Z,100299.88
2019-05-20T23:18:07.193Z,100302.88
2019-05-20T23:20:35.455Z,100000.26
2019-05-20T23:23:03.631Z,100317.73
2019-05-20T23:25:32.167Z,100311.70
2019-05-20T23:28:00.396Z,100305.67
2019-05-20T23:30:28.635Z,100299.92
2019-05-20T23:32:56.858Z,100300.31
2019-05-20T23:35:25.103Z,100298.72
2019-05-20T23:37:53.314Z,100298.78
2019-05-20T23:40:21.543Z,100296.88
2019-05-20T23:42:49.762Z,100289.39
2019-05-20T23:45:17.989Z,100299.17
2019-05-20T23:47:46.219Z,100289.22
2019-05-20T23:50:14.443Z,100296.21
2019-05-20T23:52:42.640Z,100295.97
2019-05-20T23:55:10.862Z,100294.58
2019-05-20T23:57:39.165Z,100286.99
